Time;durP1;ratioP1;P1;durP2;ratioP2;P2;SDS_P1;SDS_P2;PMS_P1;PMS_P2;Temp;Humidity;BMP_temperature;BMP_pressure;BME280_temperature;BME280_humidity;BME280_pressure;Samples;Min_cycle;Max_cycle;Signal;HPM_P1;HPM_P2
2023/05/28 00:02:19;;;;;;;16.13;9.27;;;;;;;13.89;70.03;101971.38;4960548;28;21085;-64
2023/05/28 00:04:44;;;;;;;15.95;9.85;;;;;;;13.85;69.88;101972.13;4960265;28;20022;-64
2023/05/28 00:07:10;;;;;;;16.17;9.52;;;;;;;13.79;70.60;101961.44;4959812;28;20041;-64
2023/05/28 00:09:36;;;;;;;16.30;9.85;;;;;;;13.69;71.24;101970.81;4968115;28;20037;-63
2023/05/28 00:12:02;;;;;;;15.40;8.77;;;;;;;13.54;72.21;101976.47;4965583;28;20085;-64
2023/05/28 00:14:27;;;;;;;16.83;9.32;;;;;;;13.46;72.56;101964.88;4966933;28;20031;-64
2023/05/28 00:16:52;;;;;;;15.68;8.77;;;;;;;13.41;72.75;101959.50;4960200;28;20023;-63
2023/05/28 00:19:18;;;;;;;18.55;9.50;;;;;;;13.38;72.65;101949.84;4960399;28;20050;-64
2023/05/28 00:21:43;;;;;;;14.88;9.15;;;;;;;13.35;72.52;101955.00;4963106;28;20035;-64
2023/05/28 00:24:08;;;;;;;16.02;8.82;;;;;;;13.34;72.53;101954.91;4969060;28;20490;-64
2023/05/28 00:26:34;;;;;;;15.13;9.27;;;;;;;13.32;72.64;101949.59;4969204;28;20042;-64
2023/05/28 00:28:59;;;;;;;15.13;9.20;;;;;;;13.26;72.75;101949.41;4969115;28;20089;-64
2023/05/28 00:31:25;;;;;;;17.10;9.02;;;;;;;13.28;72.77;101953.00;4969110;28;20128;-64
2023/05/28 00:33:50;;;;;;;19.42;9.13;;;;;;;13.29;72.73;101956.50;4999984;28;20034;-64
2023/05/28 00:36:15;;;;;;;15.70;8.73;;;;;;;13.30;72.71;101953.03;4969294;28;20461;-64
2023/05/28 00:38:41;;;;;;;16.05;8.88;;;;;;;13.25;72.91;101958.09;4969140;28;20034;-64
2023/05/28 00:41:06;;;;;;;17.17;9.20;;;;;;;13.13;73.87;101953.38;4969319;28;20474;-64
2023/05/28 00:43:32;;;;;;;15.65;8.55;;;;;;;12.98;74.18;101969.50;4969133;28;20041;-64
2023/05/28 00:46:01;;;;;;;14.35;7.80;;;;;;;12.76;74.72;101961.78;4968491;28;20035;-63
2023/05/28 00:48:27;;;;;;;14.15;7.93;;;;;;;12.60;75.68;101976.09;4968529;28;20030;-64
2023/05/28 00:50:53;;;;;;;13.88;7.95;;;;;;;12.55;75.61;101968.09;4968716;28;20470;-64
2023/05/28 00:53:19;;;;;;;14.48;8.48;;;;;;;12.57;75.75;101973.38;4963277;28;20031;-64
2023/05/28 00:55:44;;;;;;;15.15;8.18;;;;;;;12.53;75.99;101965.44;4959066;28;20042;-64
2023/05/28 00:58:10;;;;;;;17.20;9.27;;;;;;;12.49;75.52;101965.28;4957738;28;20137;-64
2023/05/28 01:00:37;;;;;;;16.08;8.73;;;;;;;12.47;75.74;101961.72;4960814;28;20031;-63
2023/05/28 01:03:04;;;;;;;15.13;9.10;;;;;;;12.47;75.92;101956.47;4959368;28;20035;-63
2023/05/28 01:05:31;;;;;;;17.35;9.30;;;;;;;12.51;75.71;101960.97;4964143;28;20302;-63
2023/05/28 01:08:00;;;;;;;18.98;10.18;;;;;;;12.54;75.83;101955.84;4967412;28;20034;-63
2023/05/28 01:10:26;;;;;;;20.05;10.02;;;;;;;12.56;75.76;101953.28;4963156;28;20026;-63
2023/05/28 01:12:52;;;;;;;17.30;10.40;;;;;;;12.56;75.59;101954.19;4967543;28;20035;-64
2023/05/28 01:15:18;;;;;;;17.25;10.05;;;;;;;12.57;76.17;101957.69;4963745;28;20025;-64
2023/05/28 01:17:44;;;;;;;18.98;10.63;;;;;;;12.57;76.10;101955.06;4965077;28;20034;-64
2023/05/28 01:20:13;;;;;;;20.75;10.75;;;;;;;12.58;76.02;101955.13;4965969;28;20035;-64
2023/05/28 01:22:45;;;;;;;21.38;10.65;;;;;;;12.56;75.69;101948.97;4963913;28;20033;-63
2023/05/28 01:25:12;;;;;;;17.27;10.75;;;;;;;12.55;75.77;101941.97;4966990;28;20035;-64
2023/05/28 01:27:41;;;;;;;19.42;10.52;;;;;;;12.56;76.11;101955.91;4967359;28;20035;-64
2023/05/28 01:30:11;;;;;;;18.90;10.68;;;;;;;12.53;76.16;101965.44;4967956;28;20046;-64
2023/05/28 01:32:37;;;;;;;18.25;10.63;;;;;;;12.43;76.74;101965.97;4966796;28;20073;-63
2023/05/28 01:35:05;;;;;;;19.15;11.20;;;;;;;12.34;77.28;101966.53;4969202;28;20050;-64
2023/05/28 01:37:33;;;;;;;18.35;10.55;;;;;;;12.28;77.36;101958.50;4967951;28;20458;-63
2023/05/28 01:40:02;;;;;;;20.30;11.13;;;;;;;12.28;77.84;101958.50;4967820;28;20105;-64
2023/05/28 01:42:29;;;;;;;20.63;11.65;;;;;;;12.24;78.22;101959.22;4968166;28;20041;-64
2023/05/28 01:44:56;;;;;;;19.00;11.70;;;;;;;12.24;78.65;101964.44;4967927;28;20070;-63
2023/05/28 01:47:22;;;;;;;19.20;10.70;;;;;;;12.27;79.02;101961.94;4967950;28;20838;-63
2023/05/28 01:49:47;;;;;;;20.13;10.98;;;;;;;12.30;78.75;101964.66;4967576;28;20128;-64
2023/05/28 01:52:14;;;;;;;24.55;11.45;;;;;;;12.27;78.50;101955.84;4968373;28;20068;-64
2023/05/28 01:54:40;;;;;;;21.15;10.93;;;;;;;12.29;78.31;101962.88;4967813;28;20019;-63
2023/05/28 01:57:05;;;;;;;20.20;10.52;;;;;;;12.30;79.24;101964.66;4958847;28;20026;-63
2023/05/28 01:59:31;;;;;;;20.67;10.32;;;;;;;12.32;79.04;101965.56;4963967;28;20034;-63
2023/05/28 02:01:56;;;;;;;20.85;10.95;;;;;;;12.31;79.02;101950.75;4967995;28;20023;-64
2023/05/28 02:04:22;;;;;;;21.58;10.45;;;;;;;12.31;79.21;101952.47;4962613;28;20090;-63
2023/05/28 02:06:47;;;;;;;18.70;10.30;;;;;;;12.21;77.28;101946.06;4958312;28;20030;-63
2023/05/28 02:09:12;;;;;;;19.85;10.75;;;;;;;12.17;79.93;101954.63;4957984;28;20962;-63
2023/05/28 02:11:37;;;;;;;22.67;10.60;;;;;;;12.14;79.81;101950.16;4961327;28;20041;-64
2023/05/28 02:14:04;;;;;;;18.10;10.38;;;;;;;12.13;79.22;101940.53;4966407;28;20466;-64
2023/05/28 02:16:30;;;;;;;21.67;10.80;;;;;;;12.11;78.37;101950.06;4957615;28;21725;-64
2023/05/28 02:18:55;;;;;;;20.17;11.18;;;;;;;12.10;78.99;101936.94;4957786;28;20556;-63
2023/05/28 02:21:21;;;;;;;19.95;10.98;;;;;;;12.06;80.23;101935.06;4960143;28;20126;-63
2023/05/28 02:23:48;;;;;;;20.73;11.20;;;;;;;11.88;80.78;101935.28;4957696;28;20105;-63
2023/05/28 02:26:14;;;;;;;19.40;10.63;;;;;;;11.78;80.83;101928.81;4957877;28;20552;-64
2023/05/28 02:28:42;;;;;;;21.33;11.05;;;;;;;11.79;80.45;101931.50;4959167;28;20771;-63
2023/05/28 02:31:09;;;;;;;21.60;10.70;;;;;;;11.80;80.19;101934.97;4962053;28;20427;-64
2023/05/28 02:33:34;;;;;;;17.88;10.43;;;;;;;11.82;79.85;101928.09;4964816;28;20026;-64
2023/05/28 02:36:00;;;;;;;17.58;10.10;;;;;;;11.87;79.33;101923.91;4963895;28;20027;-64
2023/05/28 02:38:25;;;;;;;21.20;9.93;;;;;;;11.88;79.27;101930.06;4965850;28;20126;-63
2023/05/28 02:40:50;;;;;;;16.85;10.13;;;;;;;11.85;79.33;101928.22;4966320;28;20450;-63
2023/05/28 02:43:16;;;;;;;19.05;10.38;;;;;;;11.75;78.64;101937.44;4963901;28;20039;-63
2023/05/28 02:45:41;;;;;;;17.80;9.40;;;;;;;11.53;78.76;101938.38;4964771;28;20040;-63
2023/05/28 02:48:06;;;;;;;15.25;9.48;;;;;;;11.34;79.63;101936.78;4964500;28;20073;-63
2023/05/28 02:50:32;;;;;;;16.83;8.98;;;;;;;11.25;80.20;101939.03;4963317;28;20054;-63
2023/05/28 02:52:57;;;;;;;16.75;9.60;;;;;;;11.16;80.01;101936.97;4964570;28;20033;-64
2023/05/28 02:55:22;;;;;;;17.30;9.70;;;;;;;11.16;80.59;101931.75;4964830;28;20501;-63
2023/05/28 02:57:48;;;;;;;19.13;9.68;;;;;;;11.22;81.45;101933.69;4964333;28;20026;-63
2023/05/28 03:00:13;;;;;;;19.40;9.27;;;;;;;11.23;80.81;101938.97;4964216;28;20054;-63
2023/05/28 03:02:39;;;;;;;17.42;9.65;;;;;;;11.30;80.73;101945.34;4964358;28;20030;-63
2023/05/28 03:05:05;;;;;;;16.50;8.98;;;;;;;11.35;80.30;101940.28;4963176;28;20129;-63
2023/05/28 03:07:30;;;;;;;18.05;8.85;;;;;;;11.36;80.61;101947.28;4965175;28;20410;-63
2023/05/28 03:09:56;;;;;;;18.05;9.13;;;;;;;11.38;80.36;101943.00;4965686;28;20049;-64
2023/05/28 03:12:22;;;;;;;16.98;9.27;;;;;;;11.38;80.31;101943.88;4964535;28;20033;-63
2023/05/28 03:14:47;;;;;;;15.80;8.35;;;;;;;11.35;78.95;101942.88;4963436;28;20027;-64
2023/05/28 03:17:12;;;;;;;15.70;8.82;;;;;;;11.35;80.36;101940.28;4962962;28;20186;-63
2023/05/28 03:19:38;;;;;;;16.33;8.70;;;;;;;11.34;80.42;101939.41;4961889;28;20031;-63
2023/05/28 03:22:03;;;;;;;16.05;8.88;;;;;;;11.33;80.72;101942.84;4960813;28;20023;-63
2023/05/28 03:24:30;;;;;;;16.58;9.25;;;;;;;11.30;80.45;101934.91;4966398;28;20027;-63
2023/05/28 03:26:55;;;;;;;16.58;8.95;;;;;;;11.30;80.72;101945.34;4966306;28;20068;-63
2023/05/28 03:29:21;;;;;;;17.20;9.07;;;;;;;11.28;81.17;101937.44;4966205;28;20173;-63
2023/05/28 03:31:46;;;;;;;17.70;9.60;;;;;;;11.28;80.79;101941.75;4966507;28;20035;-64
2023/05/28 03:34:12;;;;;;;17.30;8.85;;;;;;;11.29;80.49;101936.59;4965446;28;20044;-64
2023/05/28 03:36:40;;;;;;;16.02;8.52;;;;;;;11.31;80.69;101939.25;4965150;28;20371;-63
2023/05/28 03:39:07;;;;;;;15.73;8.70;;;;;;;11.24;78.53;101938.16;4966150;28;20035;-63
2023/05/28 03:41:32;;;;;;;17.48;8.50;;;;;;;11.25;80.44;101939.03;4966514;28;20041;-63
2023/05/28 03:43:57;;;;;;;17.63;8.90;;;;;;;11.24;81.07;101943.38;4966128;28;20557;-63
2023/05/28 03:46:22;;;;;;;18.48;9.48;;;;;;;11.24;81.04;101942.47;4966201;28;20485;-63
2023/05/28 03:48:48;;;;;;;18.27;8.55;;;;;;;11.26;80.59;101949.53;4964632;28;20043;-63
2023/05/28 03:51:13;;;;;;;16.17;8.20;;;;;;;11.29;81.15;101953.97;4966226;28;20161;-63
2023/05/28 03:53:38;;;;;;;15.38;8.35;;;;;;;11.29;81.17;101948.75;4966488;28;20363;-63
2023/05/28 03:56:04;;;;;;;18.02;8.57;;;;;;;11.25;79.99;101945.16;4960051;28;20093;-63
2023/05/28 03:58:29;;;;;;;16.90;8.40;;;;;;;11.26;81.14;101948.66;4956629;28;20074;-63
2023/05/28 04:00:54;;;;;;;17.80;9.02;;;;;;;11.26;81.31;101948.66;4956639;28;20501;-63
2023/05/28 04:03:20;;;;;;;15.52;8.52;;;;;;;11.27;81.81;101951.31;4956627;28;20178;-63
2023/05/28 04:05:45;;;;;;;17.38;8.32;;;;;;;11.27;81.23;101951.31;4956757;28;20034;-63
2023/05/28 04:08:11;;;;;;;15.45;8.27;;;;;;;11.26;81.95;101954.75;4956388;28;20034;-63
2023/05/28 04:10:36;;;;;;;15.23;7.80;;;;;;;11.25;81.31;101947.78;4956350;28;20023;-63
2023/05/28 04:13:01;;;;;;;17.58;8.35;;;;;;;11.25;82.11;101954.69;4961073;28;20030;-63
2023/05/28 04:15:27;;;;;;;15.95;8.40;;;;;;;11.25;82.57;101950.38;4964629;28;20109;-63
2023/05/28 04:17:52;;;;;;;14.48;8.30;;;;;;;11.25;82.72;101950.38;4963566;28;20031;-63
2023/05/28 04:20:17;;;;;;;16.20;8.40;;;;;;;11.25;82.46;101955.59;4957375;28;20034;-63
2023/05/28 04:22:43;;;;;;;18.73;8.18;;;;;;;11.28;82.92;101957.41;4959938;28;20368;-63
2023/05/28 04:25:08;;;;;;;16.73;8.45;;;;;;;11.28;82.88;101966.16;4958763;28;20556;-63
2023/05/28 04:27:34;;;;;;;17.42;8.20;;;;;;;11.25;83.13;101966.03;4960632;28;20035;-63
2023/05/28 04:30:00;;;;;;;15.48;8.45;;;;;;;11.27;83.48;101969.56;4956040;28;20457;-63
2023/05/28 04:32:27;;;;;;;18.63;9.18;;;;;;;11.26;83.76;101967.78;4956578;28;20023;-63
2023/05/28 04:34:53;;;;;;;14.93;8.57;;;;;;;11.25;83.54;101958.22;4960322;28;20529;-63
2023/05/28 04:37:19;;;;;;;14.88;8.52;;;;;;;11.28;84.37;101971.38;4959412;28;20027;-63
2023/05/28 04:39:44;;;;;;;15.27;8.25;;;;;;;11.30;84.47;101972.31;4961484;28;20034;-63
2023/05/28 04:42:13;;;;;;;14.82;8.52;;;;;;;11.34;84.53;101981.16;4959626;28;20054;-63
2023/05/28 04:44:40;;;;;;;16.27;8.67;;;;;;;11.37;84.28;101977.75;4959668;28;20054;-63
2023/05/28 04:47:05;;;;;;;15.90;8.32;;;;;;;11.38;84.69;101980.41;4959120;28;20296;-63
2023/05/28 04:49:31;;;;;;;16.42;8.70;;;;;;;11.40;84.83;101973.56;4959117;28;20411;-63
2023/05/28 04:51:56;;;;;;;17.67;8.43;;;;;;;11.42;84.81;101981.44;4960648;28;20027;-63
2023/05/28 04:54:22;;;;;;;18.60;8.30;;;;;;;11.43;84.98;101980.63;4961233;28;20113;-64
2023/05/28 04:56:48;;;;;;;18.33;9.10;;;;;;;11.46;85.28;101975.50;4958889;28;20126;-64
2023/05/28 04:59:13;;;;;;;13.88;8.60;;;;;;;11.49;84.57;101973.00;4964654;28;20054;-64
2023/05/28 05:01:41;;;;;;;16.65;9.00;;;;;;;11.50;84.89;101980.03;4962484;28;20038;-64
2023/05/28 05:04:07;;;;;;;18.30;9.07;;;;;;;11.53;85.18;101980.13;4959495;28;20026;-64
2023/05/28 05:06:33;;;;;;;16.50;8.48;;;;;;;11.54;85.57;101981.88;4960071;28;20035;-63
2023/05/28 05:08:58;;;;;;;17.08;9.10;;;;;;;11.53;85.36;101979.22;4959866;28;20040;-63
2023/05/28 05:11:24;;;;;;;18.25;9.63;;;;;;;11.56;86.02;101979.38;4958806;28;20034;-65
2023/05/28 05:13:49;;;;;;;15.95;8.55;;;;;;;11.58;84.05;101985.53;4964520;28;20458;-63
2023/05/28 05:16:14;;;;;;;17.80;8.73;;;;;;;11.62;86.68;101979.59;4957734;28;20149;-63
2023/05/28 05:18:40;;;;;;;19.25;8.63;;;;;;;11.63;85.52;101982.25;4960158;28;20529;-64
2023/05/28 05:21:06;;;;;;;15.82;8.15;;;;;;;11.68;86.45;101985.03;4960229;28;20453;-63
2023/05/28 05:23:31;;;;;;;17.20;8.77;;;;;;;11.73;86.62;101991.34;4962604;28;20450;-64
2023/05/28 05:25:56;;;;;;;17.80;9.30;;;;;;;11.75;87.17;101986.16;4968143;28;20026;-64
2023/05/28 05:28:22;;;;;;;18.27;9.27;;;;;;;11.79;87.46;101988.06;4967163;28;20028;-63
2023/05/28 05:30:47;;;;;;;19.70;9.57;;;;;;;11.84;88.18;101991.72;4967100;28;20102;-63
2023/05/28 05:33:12;;;;;;;18.63;9.13;;;;;;;11.88;87.63;101991.00;4966966;28;20035;-64
2023/05/28 05:35:38;;;;;;;19.88;9.00;;;;;;;11.95;87.05;101990.44;4968752;28;20027;-63
2023/05/28 05:38:03;;;;;;;22.25;10.35;;;;;;;12.01;87.19;101994.97;4968460;28;20526;-58
2023/05/28 05:40:28;;;;;;;18.20;9.32;;;;;;;12.09;87.29;101998.75;4967700;28;21662;-58
2023/05/28 05:42:54;;;;;;;17.48;9.25;;;;;;;12.13;88.76;101999.75;4967316;28;20077;-58
2023/05/28 05:45:19;;;;;;;17.92;8.95;;;;;;;12.19;86.03;102002.59;4967503;28;20055;-58
2023/05/28 05:47:45;;;;;;;17.63;10.38;;;;;;;12.24;88.57;102006.25;4967085;28;20798;-58
2023/05/28 05:50:13;;;;;;;18.60;9.23;;;;;;;12.30;87.49;102010.81;4966880;28;20121;-58
2023/05/28 05:52:39;;;;;;;18.27;9.02;;;;;;;12.38;86.08;102011.94;4967688;28;20073;-58
2023/05/28 05:55:05;;;;;;;17.52;9.27;;;;;;;12.46;86.31;102007.00;4958597;28;20505;-58
2023/05/28 05:57:32;;;;;;;15.82;8.55;;;;;;;12.55;86.02;102015.16;4958403;28;20022;-58
2023/05/28 05:59:57;;;;;;;18.05;8.85;;;;;;;12.64;85.83;102009.34;4957425;28;20265;-58
2023/05/28 06:02:22;;;;;;;18.38;9.65;;;;;;;12.73;86.75;102008.78;4959248;28;20905;-59
2023/05/28 06:04:47;;;;;;;16.90;9.27;;;;;;;12.80;85.89;102010.75;4957602;28;20031;-58
2023/05/28 06:07:13;;;;;;;14.55;8.38;;;;;;;12.86;82.07;102005.72;4959165;28;20490;-58
2023/05/28 06:09:39;;;;;;;18.17;9.55;;;;;;;12.92;84.69;101999.81;4958393;28;20034;-58
2023/05/28 06:12:04;;;;;;;16.73;8.82;;;;;;;13.00;81.45;102003.56;4957516;28;20039;-58
2023/05/28 06:14:29;;;;;;;17.13;9.07;;;;;;;13.10;85.24;102008.25;4957134;28;20027;-58
2023/05/28 06:16:55;;;;;;;17.85;9.52;;;;;;;13.24;83.91;102008.69;4957499;28;20586;-59
2023/05/28 06:19:21;;;;;;;17.83;9.43;;;;;;;13.42;85.43;102002.28;4956770;28;20081;-58
2023/05/28 06:21:46;;;;;;;17.40;10.13;;;;;;;13.53;84.61;101996.53;4957964;28;20026;-58
2023/05/28 06:24:11;;;;;;;17.92;9.70;;;;;;;13.65;84.18;102000.34;4961614;28;20461;-58
2023/05/28 06:26:37;;;;;;;16.77;9.20;;;;;;;13.79;83.27;101998.13;4967077;28;20181;-59
2023/05/28 06:29:02;;;;;;;16.38;8.90;;;;;;;13.94;83.12;101995.94;4966040;28;20642;-59
2023/05/28 06:31:27;;;;;;;21.10;9.68;;;;;;;14.07;83.45;102000.69;4966495;28;20522;-58
2023/05/28 06:33:53;;;;;;;18.33;9.90;;;;;;;14.22;82.53;101991.47;4965539;28;20078;-59
2023/05/28 06:36:18;;;;;;;19.73;9.43;;;;;;;14.38;80.56;101993.69;4967008;28;20414;-59
2023/05/28 06:38:43;;;;;;;17.27;9.05;;;;;;;14.48;81.07;101992.16;4961945;28;20034;-59
2023/05/28 06:41:09;;;;;;;18.60;9.23;;;;;;;14.60;80.35;101995.09;4961886;28;20077;-58
2023/05/28 06:43:34;;;;;;;16.40;8.55;;;;;;;14.75;79.27;101997.25;4964620;28;20038;-59
2023/05/28 06:46:00;;;;;;;18.65;10.00;;;;;;;14.88;78.85;101990.56;4964750;28;20022;-59
2023/05/28 06:48:25;;;;;;;18.33;9.18;;;;;;;15.07;79.86;101989.28;4962394;28;20469;-59
2023/05/28 06:50:51;;;;;;;16.00;8.38;;;;;;;15.24;79.68;101986.16;4964101;28;20052;-59
2023/05/28 06:53:16;;;;;;;16.55;9.20;;;;;;;15.40;79.25;101993.53;4962170;28;20042;-59
2023/05/28 06:55:41;;;;;;;16.38;7.88;;;;;;;15.53;74.29;101983.31;4961817;28;20520;-59
2023/05/28 06:58:06;;;;;;;18.70;9.43;;;;;;;15.69;78.38;101988.00;4961225;28;20030;-59
2023/05/28 07:00:32;;;;;;;15.35;7.85;;;;;;;15.80;74.87;101983.91;4961402;28;20023;-60
2023/05/28 07:02:57;;;;;;;15.80;8.57;;;;;;;16.03;77.06;101988.72;4962414;28;20034;-59
2023/05/28 07:05:22;;;;;;;18.38;8.20;;;;;;;16.21;73.44;101989.94;4962199;28;20482;-59
2023/05/28 07:07:48;;;;;;;12.57;7.03;;;;;;;16.34;72.67;101997.19;4963230;28;20042;-59
2023/05/28 07:10:13;;;;;;;14.90;7.57;;;;;;;16.49;74.45;101992.19;4963110;28;20032;-59
2023/05/28 07:12:38;;;;;;;16.50;7.60;;;;;;;16.67;74.50;102001.28;4963517;28;20130;-59
2023/05/28 07:15:06;;;;;;;14.07;7.97;;;;;;;16.72;70.74;101994.34;4964574;28;20091;-60
2023/05/28 07:17:31;;;;;;;14.18;7.55;;;;;;;16.86;73.98;101986.69;4964984;28;20039;-59
2023/05/28 07:19:57;;;;;;;13.32;6.90;;;;;;;16.99;70.49;101993.06;4965330;28;20076;-60
2023/05/28 07:22:23;;;;;;;16.15;7.90;;;;;;;17.14;71.30;101988.00;4964615;28;20022;-59
2023/05/28 07:24:49;;;;;;;14.43;7.88;;;;;;;17.24;72.11;102002.22;4963216;28;20506;-59
2023/05/28 07:27:14;;;;;;;14.40;7.65;;;;;;;17.22;69.68;102006.59;4965129;28;20030;-59
2023/05/28 07:29:40;;;;;;;15.25;7.40;;;;;;;17.24;71.35;101996.94;4963384;28;20770;-60
2023/05/28 07:32:05;;;;;;;14.73;7.90;;;;;;;17.33;71.75;102006.72;4964623;28;20088;-60
2023/05/28 07:34:31;;;;;;;13.50;6.75;;;;;;;17.37;71.32;102011.19;4963574;28;20438;-59
2023/05/28 07:36:56;;;;;;;14.52;7.15;;;;;;;17.38;70.62;102005.06;4965871;28;20039;-60
2023/05/28 07:39:22;;;;;;;15.70;7.57;;;;;;;17.51;71.58;102004.34;4964471;28;20023;-59
2023/05/28 07:41:48;;;;;;;11.68;6.97;;;;;;;17.69;70.33;102002.81;4965799;28;20019;-60
2023/05/28 07:44:15;;;;;;;12.82;7.28;;;;;;;17.93;72.21;102001.38;4965726;28;20037;-59
2023/05/28 07:46:40;;;;;;;13.35;6.95;;;;;;;18.10;70.38;101998.94;4962223;28;20023;-60
2023/05/28 07:49:06;;;;;;;16.20;7.95;;;;;;;18.31;70.81;102003.56;4964177;28;20037;-60
2023/05/28 07:51:32;;;;;;;15.15;7.05;;;;;;;18.44;69.64;102005.44;4962628;28;20148;-60
2023/05/28 07:53:57;;;;;;;13.18;7.53;;;;;;;18.51;68.24;102004.63;4963315;28;20608;-60
2023/05/28 07:56:23;;;;;;;15.82;7.93;;;;;;;18.52;63.55;102009.03;4965224;28;20069;-60
2023/05/28 07:58:48;;;;;;;14.73;7.75;;;;;;;18.64;69.45;102008.28;4962916;28;20421;-60
2023/05/28 08:01:13;;;;;;;18.17;8.90;;;;;;;18.62;68.68;102007.34;4963825;28;20525;-60
2023/05/28 08:03:38;;;;;;;16.88;8.45;;;;;;;18.46;69.46;102008.97;4959910;28;20080;-60
2023/05/28 08:06:04;;;;;;;18.13;9.48;;;;;;;18.21;69.02;102013.13;4962751;28;20027;-59
2023/05/28 08:08:30;;;;;;;16.85;9.45;;;;;;;17.94;70.97;102006.66;4966244;28;20039;-60
2023/05/28 08:10:55;;;;;;;20.75;9.63;;;;;;;17.94;70.53;102008.41;4967720;28;20475;-59
2023/05/28 08:13:21;;;;;;;15.52;9.20;;;;;;;17.96;71.24;102010.22;4966703;28;20037;-60
2023/05/28 08:15:47;;;;;;;17.95;9.98;;;;;;;17.94;70.53;102008.41;4967895;28;20038;-60
2023/05/28 08:18:12;;;;;;;18.85;9.15;;;;;;;17.91;71.80;102004.00;4968291;28;20177;-65
2023/05/28 08:20:38;;;;;;;20.80;11.82;;;;;;;17.92;72.15;101999.63;4968967;28;20486;-65
2023/05/28 08:23:04;;;;;;;20.10;9.85;;;;;;;17.90;70.74;102008.38;4966906;28;20125;-65
2023/05/28 08:25:29;;;;;;;19.98;10.07;;;;;;;17.80;70.01;102006.47;4967941;28;20956;-65
2023/05/28 08:27:54;;;;;;;17.27;9.80;;;;;;;17.93;72.42;102002.28;4968625;28;20535;-65
2023/05/28 08:30:20;;;;;;;20.20;10.00;;;;;;;18.07;74.00;102000.69;4968524;28;20395;-65
2023/05/28 08:32:45;;;;;;;19.27;10.50;;;;;;;18.21;69.12;102003.44;4968517;28;20117;-65
2023/05/28 08:35:11;;;;;;;23.00;9.45;;;;;;;18.44;72.08;102005.44;4968227;28;20482;-65
2023/05/28 08:37:36;;;;;;;18.38;9.63;;;;;;;18.60;72.32;101998.56;4968937;28;20123;-65
2023/05/28 08:40:04;;;;;;;19.70;9.32;;;;;;;18.84;68.58;102003.16;4968404;28;20419;-65
2023/05/28 08:42:30;;;;;;;20.17;9.43;;;;;;;18.94;67.30;101985.63;4969225;28;20523;-65
2023/05/28 08:44:56;;;;;;;18.65;9.65;;;;;;;19.07;66.07;101987.50;4968432;28;20029;-66
2023/05/28 08:47:21;;;;;;;19.92;8.95;;;;;;;19.29;68.86;101982.34;4968905;28;20364;-65
2023/05/28 08:49:59;;;;;;;19.77;8.85;;;;;;;19.54;69.97;101986.00;4968682;28;20030;-65
2023/05/28 08:52:26;;;;;;;16.27;8.73;;;;;;;19.85;67.90;101991.44;4968206;28;20041;-65
2023/05/28 08:54:51;;;;;;;13.45;6.82;;;;;;;19.99;58.94;101986.22;4967499;28;20494;-66
2023/05/28 08:57:17;;;;;;;16.50;5.55;;;;;;;20.14;58.40;101988.00;4967082;28;20046;-65
2023/05/28 08:59:44;;;;;;;13.07;5.43;;;;;;;20.35;60.68;101979.22;5139424;23;20086;-65
2023/05/28 09:02:11;;;;;;;12.90;5.63;;;;;;;20.50;58.90;101976.56;4950783;28;20101;-65
2023/05/28 09:04:36;;;;;;;11.25;5.30;;;;;;;20.71;60.10;101969.56;4956140;28;20038;-65
2023/05/28 09:07:02;;;;;;;12.02;5.32;;;;;;;20.93;54.27;101973.06;4957310;28;20372;-65
2023/05/28 09:09:27;;;;;;;8.68;4.90;;;;;;;21.23;58.45;101973.88;4957394;28;20085;-65
2023/05/28 09:12:02;;;;;;;10.20;5.25;;;;;;;21.39;57.46;101966.75;4954269;28;20039;-65
2023/05/28 09:14:27;;;;;;;14.25;6.10;;;;;;;21.48;56.06;101972.03;4955098;28;20031;-65
2023/05/28 09:16:52;;;;;;;11.68;5.55;;;;;;;21.58;56.23;101969.38;4956149;28;20055;-65
2023/05/28 09:19:18;;;;;;;12.90;5.38;;;;;;;21.58;52.25;101962.31;4953945;28;20063;-66
2023/05/28 09:21:55;;;;;;;13.00;6.00;;;;;;;21.80;56.24;101965.75;4954441;28;20118;-66
2023/05/28 09:24:25;;;;;;;11.32;5.95;;;;;;;21.84;53.58;101954.22;4954776;28;20038;-66
2023/05/28 09:26:54;;;;;;;11.13;5.70;;;;;;;22.13;58.15;101960.22;5117652;23;20059;-60
2023/05/28 09:29:20;;;;;;;10.95;5.78;;;;;;;22.27;54.28;101954.84;5224895;23;20111;-60
2023/05/28 09:32:00;;;;;;;10.25;5.30;;;;;;;22.48;52.90;101967.06;5099570;23;20158;-96
2023/05/28 09:35:42;;;;;;;11.80;5.20;;;;;;;22.49;54.89;101963.53;4975062;28;20027;-96
2023/05/28 09:38:28;;;;;;;;;;;;;;;;;;;;;
2023/05/28 09:44:36;;;;;;;8.60;4.60;;;;;;;22.32;52.84;101959.25;4935825;29;20039;-96
2023/05/28 09:47:27;;;;;;;;;;;;;;;;;;;;;
2023/05/28 09:50:16;;;;;;;10.07;4.60;;;;;;;22.63;49.60;101963.44;4975113;28;20031;-96
2023/05/28 09:52:47;;;;;;;10.70;5.28;;;;;;;22.71;52.26;101961.56;4973540;28;20110;-96
2023/05/28 09:55:20;;;;;;;10.23;5.03;;;;;;;22.96;53.40;101954.25;4972159;28;20023;-96
2023/05/28 09:57:49;;;;;;;10.65;4.65;;;;;;;23.02;49.01;101950.66;4970997;28;20114;-96
2023/05/28 10:00:25;;;;;;;9.82;4.70;;;;;;;22.92;45.04;101952.53;4966115;28;20515;-96
2023/05/28 10:03:11;;;;;;;9.10;4.75;;;;;;;22.67;48.81;101952.75;4968322;28;20066;-96
2023/05/28 10:05:41;;;;;;;10.98;4.95;;;;;;;22.66;50.11;101955.44;4967998;28;20047;-96
2023/05/28 10:08:11;;;;;;;11.52;4.97;;;;;;;22.85;52.17;101953.47;4971201;28;20018;-96
2023/05/28 10:10:45;;;;;;;8.75;4.78;;;;;;;23.03;52.44;101949.75;4972909;28;20030;-96
2023/05/28 10:13:14;;;;;;;9.55;4.80;;;;;;;23.17;46.93;101960.25;4970816;28;20031;-96
2023/05/28 10:15:46;;;;;;;9.85;4.57;;;;;;;23.31;50.56;101954.81;4975580;28;21426;-96
2023/05/28 10:18:24;;;;;;;9.80;5.30;;;;;;;23.21;50.56;101960.22;4975136;28;20053;-96
2023/05/28 10:20:53;;;;;;;8.52;4.65;;;;;;;23.09;48.64;101949.69;4974074;28;20019;-96
2023/05/28 10:23:21;;;;;;;9.45;5.05;;;;;;;23.09;47.45;101955.00;4971565;28;20054;-96
2023/05/28 10:25:49;;;;;;;10.27;5.03;;;;;;;23.20;50.41;101957.56;4974704;28;20110;-96
2023/05/28 10:28:21;;;;;;;;;;;;;;;23.24;50.93;101953.97;4972990;28;20099;-96
2023/05/28 10:33:40;;;;;;;12.32;5.22;;;;;;;22.99;49.07;101945.38;5133778;23;20082;-61
2023/05/28 10:36:11;;;;;;;10.05;5.05;;;;;;;22.92;47.01;101950.72;4976286;28;20045;-61
2023/05/28 10:38:49;;;;;;;10.63;4.72;;;;;;;22.93;50.05;101946.31;4977455;28;20030;-61
2023/05/28 10:41:21;;;;;;;9.47;4.80;;;;;;;23.17;46.85;101957.59;4977747;28;20610;-62
2023/05/28 10:43:50;;;;;;;8.90;4.63;;;;;;;23.34;48.31;101955.63;4977703;28;20533;-61
2023/05/28 10:46:16;;;;;;;12.05;4.57;;;;;;;23.49;47.81;101956.34;4977305;28;20066;-61
2023/05/28 10:49:02;;;;;;;9.88;4.65;;;;;;;23.64;50.18;101952.59;4977000;28;20117;-61
2023/05/28 10:51:44;;;;;;;9.07;4.40;;;;;;;23.58;44.39;101957.09;4978354;28;20040;-61
2023/05/28 10:54:24;;;;;;;10.02;4.65;;;;;;;23.59;46.77;101971.28;4978957;28;20521;-61
2023/05/28 10:57:09;;;;;;;8.55;4.63;;;;;;;23.70;47.70;101961.38;4979282;28;20033;-61
2023/05/28 11:00:06;;;;;;;10.07;4.60;;;;;;;23.68;45.14;101962.28;4978697;28;20113;-61
2023/05/28 11:02:35;;;;;;;8.60;4.40;;;;;;;23.50;45.45;101960.78;4978551;28;20512;-61
2023/05/28 11:05:02;;;;;;;;;;;;;;;23.61;47.18;101967.72;4979257;28;20513;-61
2023/05/28 11:07:32;;;;;;;10.02;4.68;;;;;;;23.66;47.85;101964.13;4977557;28;19926;-61
2023/05/28 11:09:58;;;;;;;8.90;4.38;;;;;;;23.76;45.46;101965.75;4978820;28;20593;-61
2023/05/28 11:12:28;;;;;;;9.85;4.32;;;;;;;23.71;45.86;101959.59;4978527;28;20102;-61
2023/05/28 11:14:54;;;;;;;10.73;4.80;;;;;;;23.51;45.70;101962.53;4979006;28;20133;-61
2023/05/28 11:17:19;;;;;;;7.97;4.47;;;;;;;23.69;47.56;101962.28;4977548;28;20030;-61
2023/05/28 11:19:49;;;;;;;9.18;4.78;;;;;;;23.74;46.32;101957.78;4978754;28;20088;-61
2023/05/28 11:22:17;;;;;;;7.65;4.45;;;;;;;23.85;44.39;101962.94;4978569;28;20026;-61
2023/05/28 11:24:50;;;;;;;8.88;4.00;;;;;;;23.84;42.19;101965.63;4978319;28;20640;-61
2023/05/28 11:27:16;;;;;;;7.75;4.22;;;;;;;24.14;45.14;101964.34;4978322;28;20089;-61